• Join FlightAware (Why Join?)
  • Login
  • US Flag 
Gobble Gobble! 
11:33PM EST


 

Airport Tracker/Info


-or-


 

Live Flight TrackerFlight Track Log ✈ AAL963 ✈ 31-Jan-2013 ✈ KDFW - SBGR / GRU

Flight Track Log - Related Links

Times and Time Zones

All times are in EST time to prevent confusion due to time zone crossing. See the AAL963 flight status page for this flight to view local times or setup timezone preferences in your user account.

Time Position Orientation Groundspeed Altitude Reporting Facility
EST Latitude Longitude Course Direction KTS MPH feet Rate Location/Type
09:49PM 32.9200 -97.0511 117° Southeast 189 217 1,400  Level FAA TRACON SMA TRACON (SMA)
09:49PM 32.9358 -97.0483 117° Southeast 188 216 2,300 1,920 Climbing FAA TRACON SMA TRACON (SMA)
09:50PM 33.0110 -97.0130 54° Northeast 264 304 4,500 1,800 Climbing FlightAware
09:50PM 33.0150 -96.9990 71° East 267 307 4,900 2,100 Climbing FlightAware
09:50PM 33.0170 -96.9840 81° East 281 323 5,200 2,520 Climbing FlightAware
09:51PM 33.0120 -96.9300 96° East 286 329 6,800 2,700 Climbing FlightAware
09:51PM 32.9990 -96.8930 113° Southeast 292 336 7,900 2,580 Climbing FlightAware
09:52PM 32.9820 -96.8500 115° Southeast 297 342 9,200 1,800 Climbing FlightAware
09:52PM 32.9630 -96.8060 117° Southeast 303 349 9,700 600 Climbing FlightAware
09:53PM 32.9480 -96.7690 116° Southeast 317 365 9,800 720 Climbing FlightAware
09:54PM 32.9140 -96.6900 117° Southeast 374 430 10,600 1,320 Climbing FlightAware
09:54PM 32.8810 -96.6120 117° Southeast 404 465 11,700 1,860 Climbing FlightAware
09:55PM 32.8460 -96.5310 117° Southeast 423 487 13,100 2,160 Climbing FlightAware
09:56PM 32.8060 -96.4370 117° Southeast 436 502 14,800 2,220 Climbing FlightAware
09:56PM 32.7700 -96.3500 116° Southeast 445 512 16,300 2,040 Climbing FlightAware
09:57PM 32.7470 -96.2400 104° East 461 531 17,700 1,260 Climbing FlightAware
09:58PM 32.7260 -96.1140 101° East 465 535 18,400 1,560 Climbing FlightAware
09:59PM 32.7090 -96.0000 100° East 498 573 20,200 1,500 Climbing FlightAware
09:59PM 32.6940 -95.9060 101° East 501 577 20,600 1,620 Climbing FlightAware
10:00PM 32.6659 -95.7304 101° East 523 602 22,800 2,160 Climbing FlightAware ADS-B
10:01PM 32.6594 -95.6421 95° East 531 611 23,500 1,320 Climbing FlightAware ADS-B
10:01PM 32.6592 -95.5775 109° East 527 606 24,000 1,440 Climbing Fort Worth Center
10:03PM 32.6833 -95.2622 86° East 556 640 26,600 1,440 Climbing FlightAware ADS-B
10:03PM 32.6896 -95.1674 85° East 563 648 27,300 1,200 Climbing FlightAware ADS-B
10:04PM 32.6960 -95.0703 85° East 570 656 27,900 1,080 Climbing FlightAware ADS-B
10:05PM 32.7073 -94.8916 86° East 583 671 28,900 1,080 Climbing FlightAware ADS-B
10:05PM 32.7081 -94.8619 88° East 585 673 29,100 1,020 Climbing FlightAware ADS-B
10:05PM 32.7039 -94.7981 94° East 589 678 29,400 1,140 Climbing FlightAware ADS-B
10:06PM 32.6882 -94.7158 103° East 590 679 30,000 1,080 Climbing FlightAware ADS-B
10:06PM 32.6723 -94.6618 109° East 592 681 30,200 780 Climbing FlightAware ADS-B
10:07PM 32.6288 -94.5631 118° Southeast 588 677 30,700 420 Climbing FlightAware ADS-B
10:08PM 32.5131 -94.3635 124° Southeast 587 676 31,000 120 Climbing FlightAware ADS-B
10:09PM 32.4505 -94.2564 125° Southeast 588 677 31,000  Level FlightAware ADS-B
10:09PM 32.4025 -94.1741 125° Southeast 587 676 31,000  Level FlightAware ADS-B
10:10PM 32.3557 -94.0941 125° Southeast 586 674 31,000  Level FlightAware ADS-B
10:10PM 32.3089 -94.0143 125° Southeast 584 672 31,000  Level FlightAware ADS-B
10:11PM 32.2628 -93.9360 125° Southeast 583 671 31,000  Level FlightAware ADS-B
10:11PM 32.2163 -93.8572 125° Southeast 582 670 31,000  Level FlightAware ADS-B
10:12PM 32.1696 -93.7785 125° Southeast 581 669 31,000  Level FlightAware ADS-B
10:12PM 32.1230 -93.6999 125° Southeast 581 669 31,000  Level FlightAware ADS-B
10:13PM 32.0740 -93.6174 125° Southeast 582 670 31,000  Level FlightAware ADS-B
10:13PM 32.0858 -93.6358 125° Southeast 581 669 31,000  Level Houston Center
10:14PM 31.9844 -93.4656 125° Southeast 580 667 31,000  Level Houston Center
10:15PM 31.8917 -93.3106 125° Southeast 580 667 31,000  Level Houston Center
10:16PM 31.7750 -93.1179 125° Southeast 575 662 31,000  Level FlightAware ADS-B
10:17PM 31.6703 -92.9449 125° Southeast 575 662 31,000  Level FlightAware ADS-B
10:18PM 31.5921 -92.8142 125° Southeast 577 664 31,000  Level FlightAware ADS-B
10:19PM 31.4995 -92.6591 125° Southeast 577 664 31,000  Level FlightAware ADS-B
10:19PM 31.4514 -92.5790 125° Southeast 578 665 31,000  Level FlightAware ADS-B
10:20PM 31.4022 -92.4972 125° Southeast 578 665 31,000  Level FlightAware ADS-B
10:21PM 31.2877 -92.3076 125° Southeast 578 665 31,000  Level FlightAware ADS-B
10:22PM 31.2016 -92.1658 125° Southeast 575 662 31,000  Level FlightAware ADS-B
10:23PM 31.1537 -92.0871 125° Southeast 576 663 31,000  Level FlightAware ADS-B
10:23PM 31.1048 -92.0071 126° Southeast 576 663 31,000  Level FlightAware ADS-B
10:24PM 31.0522 -91.9203 126° Southeast 575 662 31,000  Level Houston Center
10:25PM 30.9592 -91.7672 125° Southeast 577 664 31,000  Level Houston Center
10:26PM 30.8669 -91.6164 125° Southeast 575 662 31,000  Level Houston Center
10:27PM 30.7731 -91.4633 125° Southeast 578 665 31,000 -60 Level Houston Center
10:28PM 30.6642 -91.2872 126° Southeast 582 670 30,900 -60 Descending Houston Center
10:29PM 30.5683 -91.1333 126° Southeast 586 674 30,900  Level Houston Center
10:30PM 30.4700 -90.9792 126° Southeast 593 682 31,000  Climbing Houston Center
10:31PM 30.3728 -90.8239 126° Southeast 597 687 30,900  Descending Houston Center
10:32PM 30.2747 -90.6686 126° Southeast 600 690 31,000  Climbing Houston Center
10:33PM 30.1758 -90.5144 127° Southeast 600 690 31,000 -60 Level Houston Center
10:34PM 30.0794 -90.3614 126° Southeast 596 686 30,900 -60 Descending Houston Center
10:35PM 29.9811 -90.2083 127° Southeast 599 689 30,900  Level Houston Center
10:36PM 29.8828 -90.0539 126° Southeast 603 694 31,000  Climbing Houston Center
10:37PM 29.7575 -89.8764 129° Southeast 598 688 31,000 -60 Level Houston Center
10:38PM 29.6503 -89.7339 131° Southeast 594 684 30,900 -60 Descending Houston Center
10:39PM 29.5436 -89.5903 130° Southeast 593 682 30,900  Level Houston Center
10:40PM 29.4544 -89.4286 122° Southeast 596 686 30,900  Level Houston Center
10:41PM 29.3992 -89.2461 109° East 611 703 30,900  Level Houston Center
10:42PM 29.3508 -89.0622 107° East 606 697 31,000  Climbing Houston Center
10:43PM 29.3036 -88.8781 106° East 605 696 30,900 -60 Descending Houston Center
10:44PM 29.2569 -88.6947 106° East 603 694 30,900  Level Houston Center
10:45PM 29.2100 -88.5133 106° East 600 690 31,000  Climbing Houston Center
10:46PM 29.1550 -88.3347 109° East 595 685 31,000  Level Houston Center
10:47PM 29.0892 -88.1214 109° East 595 685 31,000  Level Houston Center
10:48PM 29.0372 -87.9536 109° East 595 685 31,000  Level Houston Center
10:49PM 28.9833 -87.7753 109° East 596 686 31,000 -60 Level Houston Center
10:50PM 28.9297 -87.5989 109° East 593 682 30,900  Descending Houston Center
10:51PM 28.8764 -87.4253 109° East 586 674 31,000  Climbing Houston Center
10:52PM 28.8250 -87.2550 109° East 562 647 31,000  Level Jacksonville Center
10:53PM 28.7681 -87.0819 111° Southeast 577 664 31,000  Level Jacksonville Center
10:54PM 28.7131 -86.9094 110° East 577 664 31,000 -60 Level Jacksonville Center
10:55PM 28.6600 -86.7369 109° East 577 664 30,900  Descending Jacksonville Center
10:56PM 28.6025 -86.5622 111° Southeast 577 664 31,000  Climbing Jacksonville Center
10:57PM 28.5489 -86.3925 110° East 569 655 31,000 -60 Level Jacksonville Center
10:58PM 28.4928 -86.2206 110° East 576 663 30,900 -60 Descending Jacksonville Center
10:59PM 28.4367 -86.0486 110° East 581 669 30,900  Level Jacksonville Center
11:00PM 28.3803 -85.8769 110° East 581 669 31,000  Climbing Jacksonville Center
11:01PM 28.3236 -85.7056 110° East 576 663 30,900 -60 Descending Jacksonville Center
11:02PM 28.2689 -85.5344 111° Southeast 576 663 30,900  Level Jacksonville Center
11:04PM 28.1675 -85.2203 111° Southeast 584 672 31,000  Climbing Miami Center
11:05PM 28.1144 -85.0544 117° Southeast 578 665 30,900  Descending Miami Center
11:06PM 28.0310 -84.8140 110° East 573 659 31,000  Climbing FlightAware
11:07PM 27.9930 -84.7020 111° Southeast 571 657 31,000  Level FlightAware
11:08PM 27.9550 -84.5890 111° Southeast 567 652 31,000  Level FlightAware
11:09PM 27.9130 -84.4660 111° Southeast 564 649 31,000  Level FlightAware
11:09PM 27.8760 -84.3550 111° Southeast 563 648 31,000  Level FlightAware
11:10PM 27.8380 -84.2470 112° Southeast 560 644 31,000  Level FlightAware
11:11PM 27.7850 -84.1280 117° Southeast 559 643 31,000  Level FlightAware
11:11PM 27.7380 -84.0230 117° Southeast 558 642 31,000  Level FlightAware
11:12PM 27.6860 -83.9050 116° Southeast 557 641 31,000  Level FlightAware
11:13PM 27.6400 -83.7990 116° Southeast 561 646 31,000  Level FlightAware
11:13PM 27.5900 -83.6830 116° Southeast 560 644 31,000  Level FlightAware
11:14PM 27.5440 -83.5750 116° Southeast 558 642 31,000  Level FlightAware
11:15PM 27.4920 -83.4560 116° Southeast 558 642 31,000  Level FlightAware
11:16PM 27.4470 -83.3530 116° Southeast 558 642 31,000  Level FlightAware
11:16PM 27.4060 -83.2580 116° Southeast 559 643 31,000  Level FlightAware
11:17PM 27.3510 -83.1340 117° Southeast 559 643 31,000  Level FlightAware
11:18PM 27.3030 -83.0250 116° Southeast 559 643 31,000  Level FlightAware
11:18PM 27.2650 -82.9400 117° Southeast 556 640 31,000  Level FlightAware
11:19PM 27.2050 -82.8050 117° Southeast 559 643 31,000  Level FlightAware
11:20PM 27.1680 -82.7220 117° Southeast 559 643 31,000  Level FlightAware
11:21PM 27.0900 -82.5480 117° Southeast 553 636 31,000  Level FlightAware
11:21PM 27.0450 -82.4470 117° Southeast 551 634 31,000  Level FlightAware
11:22PM 27.0040 -82.3580 117° Southeast 550 633 31,000  Level FlightAware
11:23PM 26.9480 -82.2330 117° Southeast 544 626 31,000  Level FlightAware
11:23PM 26.9070 -82.1430 117° Southeast 547 629 31,000  Level FlightAware
11:24PM 26.8490 -82.0180 117° Southeast 546 628 31,000  Level FlightAware
11:25PM 26.8090 -81.9310 117° Southeast 546 628 31,000  Level FlightAware
11:26PM 26.7580 -81.8180 117° Southeast 542 624 31,000  Level FlightAware
11:26PM 26.7060 -81.7050 117° Southeast 541 623 31,000  Level FlightAware
11:27PM 26.6600 -81.6050 117° Southeast 540 621 31,000  Level FlightAware
11:28PM 26.6140 -81.5060 117° Southeast 542 624 31,000  Level FlightAware
11:28PM 26.5610 -81.3920 117° Southeast 542 624 31,000  Level FlightAware
11:29PM 26.5150 -81.2930 117° Southeast 542 624 31,000  Level FlightAware
11:30PM 26.4660 -81.1870 117° Southeast 538 619 31,000  Level FlightAware
11:30PM 26.4200 -81.0890 118° Southeast 536 617 31,000  Level FlightAware
11:31PM 26.3770 -80.9970 118° Southeast 535 616 31,000  Level FlightAware
11:32PM 26.3270 -80.8900 118° Southeast 534 615 31,000  Level FlightAware
11:32PM 26.2800 -80.7910 118° Southeast 533 613 31,000  Level FlightAware
11:33PM 26.2310 -80.6870 118° Southeast 533 613 31,000  Level FlightAware
11:34PM 26.1810 -80.5800 117° Southeast 534 615 31,000  Level FlightAware
11:34PM 26.1410 -80.4970 118° Southeast 532 612 31,000  Level FlightAware
11:35PM 26.0900 -80.3900 118° Southeast 534 615 31,000  Level FlightAware
11:36PM 26.0350 -80.2720 117° Southeast 534 615 31,000 180 Level FlightAware
11:37PM 25.9910 -80.1810 118° Southeast 535 616 31,300 840 Climbing FlightAware
11:37PM 25.9360 -80.0660 118° Southeast 538 619 32,200 1,080 Climbing FlightAware
11:38PM 25.8890 -79.9680 118° Southeast 539 620 32,900 540 Climbing FlightAware
11:39PM 25.8390 -79.8630 118° Southeast 538 619 33,000 60 Climbing FlightAware
11:39PM 25.7930 -79.7680 118° Southeast 542 624 33,000  Level FlightAware
11:40PM 25.7410 -79.6600 118° Southeast 541 623 33,000  Level FlightAware
11:41PM 25.6900 -79.5540 118° Southeast 542 624 33,000  Level FlightAware
11:41PM 25.6520 -79.4750 118° Southeast 542 624 33,000  Level FlightAware
11:42PM 25.5880 -79.3450 119° Southeast 540 621 33,000  Level FlightAware
11:43PM 25.5410 -79.2500 119° Southeast 537 618 33,000  Level FlightAware
11:44PM 25.4960 -79.1580 118° Southeast 539 620 33,000  Level FlightAware
11:44PM 25.4430 -79.0510 119° Southeast 538 619 33,000  Level FlightAware
11:45PM 25.3680 -78.9120 121° Southeast 534 615 33,000  Level FlightAware
11:46PM 25.3110 -78.8340 129° Southeast 530 610 33,000  Level FlightAware
11:47PM 25.2370 -78.7440 132° Southeast 531 611 33,000  Level FlightAware
11:47PM 25.1660 -78.6580 132° Southeast 529 609 33,000  Level FlightAware
11:48PM 25.0930 -78.5680 132° Southeast 530 610 33,000  Level FlightAware
11:49PM 25.0260 -78.4870 132° Southeast 528 608 33,000  Level FlightAware
11:49PM 24.9680 -78.4170 132° Southeast 527 606 33,000  Level FlightAware
11:50PM 24.9020 -78.3360 132° Southeast 527 606 33,000  Level FlightAware
11:51PM 24.8460 -78.2680 132° Southeast 527 606 33,000  Level FlightAware
11:52PM 24.7910 -78.2000 132° Southeast 527 606 33,000  Level FlightAware
11:52PM 24.7220 -78.1150 132° Southeast 527 606 33,000  Level FlightAware
11:53PM 24.6660 -78.0480 133° Southeast 527 606 33,000  Level FlightAware
11:54PM 24.6110 -77.9800 132° Southeast 527 606 33,000  Level FlightAware
11:54PM 24.5550 -77.9120 132° Southeast 527 606 33,000  Level FlightAware
11:55PM 24.3953 -77.7350 132° Southeast 524 603 33,000  Level Miami Center
11:56PM 24.2978 -77.6158 132° Southeast 524 603 33,000  Level Miami Center
11:57PM 24.2000 -77.5014 133° Southeast 524 603 33,000  Level Miami Center
11:58PM 24.1044 -77.3847 132° Southeast 519 597 33,000  Level Miami Center
11:59PM 24.0064 -77.2706 133° Southeast 519 597 33,000  Level Miami Center
12:00AM 23.9128 -77.1567 132° Southeast 513 590 33,000  Level Miami Center
12:01AM 23.8292 -77.0564 132° Southeast 497 572 33,000  Level Miami Center
12:02AM 23.7333 -76.9428 133° Southeast 497 572 33,000  Level Miami Center
12:03AM 23.6372 -76.8294 133° Southeast 502 578 33,000  Level Miami Center
12:04AM 23.5408 -76.7139 132° Southeast 502 578 33,000  Level Miami Center
12:05AM 23.4425 -76.6031 134° Southeast 502 578 33,000  Level Miami Center
12:06AM 23.3483 -76.4900 132° Southeast 502 578 33,000  Level Miami Center
12:07AM 23.2497 -76.3772 134° Southeast 502 578 33,000  Level Miami Center
12:08AM 23.1533 -76.2647 133° Southeast 502 578 33,000  Level Miami Center
12:09AM 23.0567 -76.1522 133° Southeast 502 578 33,000  Level Miami Center
12:10AM 22.9619 -76.0422 133° Southeast 502 578 33,000  Level Miami Center
12:11AM 22.8631 -75.9278 133° Southeast 502 578 33,000  Level Miami Center
12:12AM 22.7664 -75.8158 133° Southeast 502 578 33,000  Level Miami Center
12:13AM 22.6714 -75.7064 133° Southeast 502 578 33,000  Level Miami Center
12:14AM 22.5744 -75.5947 133° Southeast 502 578 33,000  Level Miami Center
12:15AM 22.4775 -75.4833 133° Southeast 502 578 33,000  Level Miami Center
12:16AM 22.3822 -75.3742 133° Southeast 502 578 33,000  Level Miami Center
12:17AM 22.2853 -75.2653 134° Southeast 502 578 33,000  Level Miami Center
12:18AM 22.1900 -75.1544 133° Southeast 502 578 33,000  Level Miami Center
12:19AM 22.0925 -75.0458 134° Southeast 502 578 33,000  Level Miami Center
12:20AM 21.9869 -74.9464 139° Southeast 502 578 33,000  Level Miami Center
12:21AM 21.8814 -74.8472 139° Southeast 502 578 33,000  Level Miami Center
12:22AM 21.7756 -74.7439 138° Southeast 502 578 33,000 -60 Level Miami Center
12:23AM 21.6739 -74.6450 138° Southeast 509 586 32,900 -60 Descending Miami Center
12:24AM 21.5678 -74.5442 139° Southeast 504 580 32,900  Level Miami Center
12:25AM 21.4597 -74.4433 139° Southeast 504 580 33,000  Climbing Miami Center
12:26AM 21.3475 -74.3383 139° Southeast 499 574 33,000  Level Miami Center
12:27AM 21.2414 -74.2381 139° Southeast 499 574 33,000  Level Miami Center
12:28AM 21.1375 -74.1397 139° Southeast 494 568 33,000  Level Miami Center
12:29AM 21.0333 -74.0419 139° Southeast 494 568 33,000  Level Miami Center
12:30AM 20.9272 -73.9419 139° Southeast 494 568 33,000  Level Miami Center
12:31AM 20.8167 -73.8422 140° Southeast 501 577 33,000  Level Miami Center
12:32AM 20.7147 -73.7469 139° Southeast 501 577 33,000  Level Miami Center
12:33AM 20.6106 -73.6472 138° Southeast 501 577 33,000 -60 Level Miami Center
12:34AM 20.5019 -73.5458 139° Southeast 507 583 32,900  Descending Miami Center
12:35AM 20.3914 -73.4489 141° Southeast 512 589 33,000  Climbing Miami Center
12:36AM 20.2847 -73.3475 138° Southeast 512 589 32,900  Descending Miami Center
12:37AM 20.1783 -73.2486 139° Southeast 512 589 33,000  Climbing Miami Center
12:39AM 20.0242 -73.1310 142° Southeast  Level FlightAware Approximate
12:46AM 19.2504 -72.4861 142° Southeast  Level FlightAware Approximate
12:47AM 19.1397 -72.3944 142° Southeast  Level FlightAware Approximate
12:48AM 19.0289 -72.3029 142° Southeast  Level FlightAware Approximate
12:49AM 18.9181 -72.2115 142° Southeast  Level FlightAware Approximate
12:50AM 18.8073 -72.1202 142° Southeast  Level FlightAware Approximate
12:51AM 18.6964 -72.0291 142° Southeast  Level FlightAware Approximate
12:52AM 18.5866 -71.9366 137° Southeast  Level FlightAware Approximate
12:53AM 18.4799 -71.8409 146° Southeast  Level FlightAware Approximate
12:54AM 18.3629 -71.7590 146° Southeast  Level FlightAware Approximate
12:55AM 18.2497 -71.6740 144° Southeast  Level FlightAware Approximate
12:56AM 18.1375 -71.5876 144° Southeast  Level FlightAware Approximate
12:57AM 18.0253 -71.5013 144° Southeast  Level FlightAware Approximate
12:58AM 17.9130 -71.4151 144° Southeast  Level FlightAware Approximate
12:59AM 17.8007 -71.3290 144° Southeast  Level FlightAware Approximate
01:00AM 17.6884 -71.2431 144° Southeast  Level FlightAware Approximate
01:01AM 17.5760 -71.1572 144° Southeast  Level FlightAware Approximate
01:02AM 17.4636 -71.0715 144° Southeast  Level FlightAware Approximate
01:03AM 17.3512 -70.9858 144° Southeast  Level FlightAware Approximate
01:04AM 17.2387 -70.9003 144° Southeast  Level FlightAware Approximate
01:05AM 17.1262 -70.8148 144° Southeast  Level FlightAware Approximate
01:06AM 17.0136 -70.7295 144° Southeast  Level FlightAware Approximate
01:07AM 16.9010 -70.6442 144° Southeast  Level FlightAware Approximate
01:08AM 16.7884 -70.5591 144° Southeast  Level FlightAware Approximate
01:09AM 16.6757 -70.4741 144° Southeast  Level FlightAware Approximate
01:10AM 16.5630 -70.3892 144° Southeast  Level FlightAware Approximate
01:11AM 16.4503 -70.3043 144° Southeast  Level FlightAware Approximate
01:12AM 16.3375 -70.2196 144° Southeast  Level FlightAware Approximate
01:13AM 16.2248 -70.1349 144° Southeast  Level FlightAware Approximate
01:14AM 16.1119 -70.0504 144° Southeast  Level FlightAware Approximate
01:15AM 15.9991 -69.9660 144° Southeast  Level FlightAware Approximate
01:16AM 15.8862 -69.8815 144° Southeast  Level FlightAware Approximate
01:17AM 15.7734 -69.7971 144° Southeast  Level FlightAware Approximate
01:18AM 15.6605 -69.7129 144° Southeast  Level FlightAware Approximate
01:19AM 15.5476 -69.6287 144° Southeast  Level FlightAware Approximate
01:20AM 15.4346 -69.5446 144° Southeast  Level FlightAware Approximate
01:21AM 15.3216 -69.4606 144° Southeast  Level FlightAware Approximate
01:22AM 15.2086 -69.3767 144° Southeast  Level FlightAware Approximate
01:23AM 15.0956 -69.2929 144° Southeast  Level FlightAware Approximate
01:24AM 14.9825 -69.2092 144° Southeast  Level FlightAware Approximate
01:25AM 14.8694 -69.1256 144° Southeast  Level FlightAware Approximate
01:26AM 14.7563 -69.0420 144° Southeast  Level FlightAware Approximate
01:27AM 14.6431 -68.9586 144° Southeast  Level FlightAware Approximate
01:28AM 14.5299 -68.8752 145° Southeast  Level FlightAware Approximate
01:29AM 14.4166 -68.7919 145° Southeast  Level FlightAware Approximate
01:30AM 14.3034 -68.7087 145° Southeast  Level FlightAware Approximate
01:31AM 14.1901 -68.6256 145° Southeast  Level FlightAware Approximate
01:32AM 14.0768 -68.5426 145° Southeast  Level FlightAware Approximate
01:33AM 13.9635 -68.4596 145° Southeast  Level FlightAware Approximate
01:34AM 13.8501 -68.3768 145° Southeast  Level FlightAware Approximate
01:35AM 13.7367 -68.2940 145° Southeast  Level FlightAware Approximate
01:36AM 13.6233 -68.2113 145° Southeast  Level FlightAware Approximate
01:37AM 13.5098 -68.1286 145° Southeast  Level FlightAware Approximate
01:38AM 13.3963 -68.0461 145° Southeast  Level FlightAware Approximate
01:39AM 13.2828 -67.9636 145° Southeast  Level FlightAware Approximate
01:40AM 13.1693 -67.8812 145° Southeast  Level FlightAware Approximate
01:41AM 13.0557 -67.7989 145° Southeast  Level FlightAware Approximate
01:42AM 12.9421 -67.7167 145° Southeast  Level FlightAware Approximate
01:43AM 12.8286 -67.6345 145° Southeast  Level FlightAware Approximate
01:44AM 12.7149 -67.5525 145° Southeast  Level FlightAware Approximate
01:45AM 12.6012 -67.4705 145° Southeast  Level FlightAware Approximate
01:46AM 12.4875 -67.3886 145° Southeast  Level FlightAware Approximate
01:47AM 12.3737 -67.3068 145° Southeast  Level FlightAware Approximate
01:48AM 12.2602 -67.2252 145° Southeast  Level FlightAware Approximate
01:49AM 12.1466 -67.1436 145° Southeast  Level FlightAware Approximate
01:50AM 12.0330 -67.0621 145° Southeast  Level FlightAware Approximate
01:51AM 11.9193 -66.9807 145° Southeast  Level FlightAware Approximate
01:52AM 11.8055 -66.8993 145° Southeast  Level FlightAware Approximate
01:53AM 11.6916 -66.8178 145° Southeast  Level FlightAware Approximate
01:54AM 11.5777 -66.7365 145° Southeast  Level FlightAware Approximate
01:55AM 11.4640 -66.6554 145° Southeast  Level FlightAware Approximate
01:56AM 11.3502 -66.5743 145° Southeast  Level FlightAware Approximate
01:57AM 11.2364 -66.4933 145° Southeast  Level FlightAware Approximate
01:58AM 11.1224 -66.4122 145° Southeast  Level FlightAware Approximate
01:59AM 11.0084 -66.3312 145° Southeast  Level FlightAware Approximate
02:00AM 10.8944 -66.2502 145° Southeast  Level FlightAware Approximate
02:01AM 10.7803 -66.1693 145° Southeast  Level FlightAware Approximate
02:02AM 10.6662 -66.0885 145° Southeast  Level FlightAware Approximate
02:03AM 10.5521 -66.0077 145° Southeast  Level FlightAware Approximate
02:04AM 10.4380 -65.9270 145° Southeast  Level FlightAware Approximate
02:05AM 10.3239 -65.8463 145° Southeast  Level FlightAware Approximate
02:06AM 10.2097 -65.7657 145° Southeast  Level FlightAware Approximate
02:07AM 10.0955 -65.6852 145° Southeast  Level FlightAware Approximate
02:08AM 9.9813 -65.6047 145° Southeast  Level FlightAware Approximate
02:09AM 9.8671 -65.5243 145° Southeast  Level FlightAware Approximate
02:10AM 9.7529 -65.4439 145° Southeast  Level FlightAware Approximate
02:11AM 9.6386 -65.3636 145° Southeast  Level FlightAware Approximate
02:12AM 9.5243 -65.2833 145° Southeast  Level FlightAware Approximate
02:13AM 9.4100 -65.2031 145° Southeast  Level FlightAware Approximate
02:14AM 9.2957 -65.1230 145° Southeast  Level FlightAware Approximate
02:15AM 9.1814 -65.0429 145° Southeast  Level FlightAware Approximate
02:16AM 9.0670 -64.9628 145° Southeast  Level FlightAware Approximate
02:17AM 8.9527 -64.8828 145° Southeast  Level FlightAware Approximate
02:18AM 8.8383 -64.8029 145° Southeast  Level FlightAware Approximate
02:19AM 8.7239 -64.7230 145° Southeast  Level FlightAware Approximate
02:20AM 8.6094 -64.6431 145° Southeast  Level FlightAware Approximate
02:21AM 8.4950 -64.5633 145° Southeast  Level FlightAware Approximate
02:22AM 8.3806 -64.4836 145° Southeast  Level FlightAware Approximate
02:23AM 8.2661 -64.4039 145° Southeast  Level FlightAware Approximate
02:24AM 8.1516 -64.3242 145° Southeast  Level FlightAware Approximate
02:25AM 8.0371 -64.2446 145° Southeast  Level FlightAware Approximate
02:26AM 7.9226 -64.1650 145° Southeast  Level FlightAware Approximate
02:27AM 7.8081 -64.0855 145° Southeast  Level FlightAware Approximate
02:28AM 7.6935 -64.0060 145° Southeast  Level FlightAware Approximate
02:29AM 7.5789 -63.9266 145° Southeast  Level FlightAware Approximate
02:30AM 7.4644 -63.8472 146° Southeast  Level FlightAware Approximate
02:31AM 7.3498 -63.7678 146° Southeast  Level FlightAware Approximate
02:32AM 7.2352 -63.6885 146° Southeast  Level FlightAware Approximate
02:33AM 7.1206 -63.6092 146° Southeast  Level FlightAware Approximate
02:34AM 7.0059 -63.5300 146° Southeast  Level FlightAware Approximate
02:35AM 6.8913 -63.4508 146° Southeast  Level FlightAware Approximate
02:36AM 6.7766 -63.3716 146° Southeast  Level FlightAware Approximate
02:37AM 6.6620 -63.2925 146° Southeast  Level FlightAware Approximate
02:38AM 6.5473 -63.2134 146° Southeast  Level FlightAware Approximate
02:39AM 6.4326 -63.1344 146° Southeast  Level FlightAware Approximate
02:40AM 6.3179 -63.0554 146° Southeast  Level FlightAware Approximate
02:41AM 6.2032 -62.9764 146° Southeast  Level FlightAware Approximate
02:42AM 6.0884 -62.8974 146° Southeast  Level FlightAware Approximate
02:43AM 5.9737 -62.8185 146° Southeast  Level FlightAware Approximate
02:44AM 5.8589 -62.7397 146° Southeast  Level FlightAware Approximate
02:45AM 5.7442 -62.6608 146° Southeast  Level FlightAware Approximate
02:46AM 5.6294 -62.5820 146° Southeast  Level FlightAware Approximate
02:47AM 5.5146 -62.5032 146° Southeast  Level FlightAware Approximate
02:48AM 5.3998 -62.4245 146° Southeast  Level FlightAware Approximate
02:49AM 5.2850 -62.3458 146° Southeast  Level FlightAware Approximate
02:50AM 5.1702 -62.2671 146° Southeast  Level FlightAware Approximate
02:51AM 5.0554 -62.1884 146° Southeast  Level FlightAware Approximate
02:52AM 4.9405 -62.1098 146° Southeast  Level FlightAware Approximate
02:53AM 4.8257 -62.0312 146° Southeast  Level FlightAware Approximate
02:54AM 4.7109 -61.9526 146° Southeast  Level FlightAware Approximate
02:55AM 4.5960 -61.8740 146° Southeast  Level FlightAware Approximate
02:56AM 4.4811 -61.7955 146° Southeast  Level FlightAware Approximate
02:57AM 4.3663 -61.7170 146° Southeast  Level FlightAware Approximate
02:58AM 4.2514 -61.6385 146° Southeast  Level FlightAware Approximate
02:59AM 4.1365 -61.5601 146° Southeast  Level FlightAware Approximate
03:00AM 4.0216 -61.4816 146° Southeast  Level FlightAware Approximate
03:01AM 3.9067 -61.4032 146° Southeast  Level FlightAware Approximate
03:02AM 3.7917 -61.3248 146° Southeast  Level FlightAware Approximate
03:03AM 3.6768 -61.2465 146° Southeast  Level FlightAware Approximate
03:04AM 3.5619 -61.1681 146° Southeast  Level FlightAware Approximate
03:05AM 3.4469 -61.0898 146° Southeast  Level FlightAware Approximate
03:06AM 3.3320 -61.0115 146° Southeast  Level FlightAware Approximate
03:07AM 3.2171 -60.9332 146° Southeast  Level FlightAware Approximate
03:08AM 3.1021 -60.8549 146° Southeast  Level FlightAware Approximate
03:09AM 2.9871 -60.7767 146° Southeast  Level FlightAware Approximate
03:10AM 2.8722 -60.6984 146° Southeast  Level FlightAware Approximate
03:11AM 2.7501 -60.6322 153° Southeast  Level FlightAware Approximate
03:12AM 2.6263 -60.5689 153° Southeast  Level FlightAware Approximate
03:13AM 2.5025 -60.5055 153° Southeast  Level FlightAware Approximate
03:14AM 2.3787 -60.4422 153° Southeast  Level FlightAware Approximate
03:15AM 2.2549 -60.3789 153° Southeast  Level FlightAware Approximate
03:16AM 2.1311 -60.3157 153° Southeast  Level FlightAware Approximate
03:17AM 2.0073 -60.2524 153° Southeast  Level FlightAware Approximate
03:18AM 1.8835 -60.1891 153° Southeast  Level FlightAware Approximate
03:19AM 1.7597 -60.1259 153° Southeast  Level FlightAware Approximate
03:20AM 1.6359 -60.0626 153° Southeast  Level FlightAware Approximate
03:21AM 1.5121 -59.9994 153° Southeast  Level FlightAware Approximate
03:22AM 1.3883 -59.9362 153° Southeast  Level FlightAware Approximate
03:23AM 1.2645 -59.8730 153° Southeast  Level FlightAware Approximate
03:24AM 1.1407 -59.8097 153° Southeast  Level FlightAware Approximate
03:25AM 1.0169 -59.7465 153° Southeast  Level FlightAware Approximate
03:26AM 0.8931 -59.6833 153° Southeast  Level FlightAware Approximate
03:27AM 0.7693 -59.6201 153° Southeast  Level FlightAware Approximate
03:28AM 0.6455 -59.5569 153° Southeast  Level FlightAware Approximate
03:29AM 0.5217 -59.4937 153° Southeast  Level FlightAware Approximate
03:30AM 0.3979 -59.4305 153° Southeast  Level FlightAware Approximate
03:31AM 0.2740 -59.3673 153° Southeast  Level FlightAware Approximate
03:32AM 0.1502 -59.3041 153° Southeast  Level FlightAware Approximate
03:33AM 0.0264 -59.2410 153° Southeast  Level FlightAware Approximate
03:34AM -0.0974 -59.1778 153° Southeast  Level FlightAware Approximate
03:35AM -0.2212 -59.1146 153° Southeast  Level FlightAware Approximate
03:36AM -0.3451 -59.0514 153° Southeast  Level FlightAware Approximate
03:37AM -0.4689 -58.9882 153° Southeast  Level FlightAware Approximate
03:38AM -0.5927 -58.9250 153° Southeast  Level FlightAware Approximate
03:39AM -0.7165 -58.8618 153° Southeast  Level FlightAware Approximate
03:40AM -0.8403 -58.7986 153° Southeast  Level FlightAware Approximate
03:41AM -0.9641 -58.7354 153° Southeast  Level FlightAware Approximate
03:42AM -1.0879 -58.6722 153° Southeast  Level FlightAware Approximate
03:43AM -1.2117 -58.6090 153° Southeast  Level FlightAware Approximate
03:44AM -1.3355 -58.5457 153° Southeast  Level FlightAware Approximate
03:45AM -1.4594 -58.4825 153° Southeast  Level FlightAware Approximate
03:46AM -1.5832 -58.4193 153° Southeast  Level FlightAware Approximate
03:47AM -1.7070 -58.3560 153° Southeast  Level FlightAware Approximate
03:48AM -1.8308 -58.2928 153° Southeast  Level FlightAware Approximate
03:49AM -1.9546 -58.2295 153° Southeast  Level FlightAware Approximate
03:50AM -2.0784 -58.1662 153° Southeast  Level FlightAware Approximate
03:51AM -2.2022 -58.1030 153° Southeast  Level FlightAware Approximate
03:52AM -2.3259 -58.0397 153° Southeast  Level FlightAware Approximate
03:53AM -2.4497 -57.9764 153° Southeast  Level FlightAware Approximate
03:54AM -2.5735 -57.9131 153° Southeast  Level FlightAware Approximate
03:55AM -2.6973 -57.8498 153° Southeast  Level FlightAware Approximate
03:56AM -2.8211 -57.7864 153° Southeast  Level FlightAware Approximate
03:57AM -2.9448 -57.7231 153° Southeast  Level FlightAware Approximate
03:58AM -3.0686 -57.6597 153° Southeast  Level FlightAware Approximate
03:59AM -3.1924 -57.5963 153° Southeast  Level FlightAware Approximate
04:00AM -3.3161 -57.5329 153° Southeast  Level FlightAware Approximate
04:01AM -3.4399 -57.4695 153° Southeast  Level FlightAware Approximate
04:02AM -3.5637 -57.4061 153° Southeast  Level FlightAware Approximate
04:03AM -3.6874 -57.3427 153° Southeast  Level FlightAware Approximate
04:04AM -3.8112 -57.2792 153° Southeast  Level FlightAware Approximate
04:05AM -3.9349 -57.2157 153° Southeast  Level FlightAware Approximate
04:06AM -4.0586 -57.1522 153° Southeast  Level FlightAware Approximate
04:07AM -4.1824 -57.0887 153° Southeast  Level FlightAware Approximate
04:08AM -4.3061 -57.0252 153° Southeast  Level FlightAware Approximate
04:09AM -4.4298 -56.9616 153° Southeast  Level FlightAware Approximate
04:10AM -4.5535 -56.8980 153° Southeast  Level FlightAware Approximate
04:11AM -4.6772 -56.8344 153° Southeast  Level FlightAware Approximate
04:12AM -4.8010 -56.7708 153° Southeast  Level FlightAware Approximate
04:13AM -4.9247 -56.7071 153° Southeast  Level FlightAware Approximate
04:14AM -5.0483 -56.6435 153° Southeast  Level FlightAware Approximate
04:15AM -5.1720 -56.5798 153° Southeast  Level FlightAware Approximate
04:16AM -5.2957 -56.5161 153° Southeast  Level FlightAware Approximate
04:17AM -5.4194 -56.4523 153° Southeast  Level FlightAware Approximate
04:18AM -5.5430 -56.3885 153° Southeast  Level FlightAware Approximate
04:19AM -5.6667 -56.3247 153° Southeast  Level FlightAware Approximate
04:20AM -5.7904 -56.2609 153° Southeast  Level FlightAware Approximate
04:21AM -5.9140 -56.1971 153° Southeast  Level FlightAware Approximate
04:22AM -6.0377 -56.1332 153° Southeast  Level FlightAware Approximate
04:23AM -6.1613 -56.0693 153° Southeast  Level FlightAware Approximate
04:24AM -6.2849 -56.0053 153° Southeast  Level FlightAware Approximate
04:25AM -6.4085 -55.9414 153° Southeast  Level FlightAware Approximate
04:26AM -6.5321 -55.8774 153° Southeast  Level FlightAware Approximate
04:27AM -6.6557 -55.8133 153° Southeast  Level FlightAware Approximate
04:28AM -6.7793 -55.7493 153° Southeast  Level FlightAware Approximate
04:29AM -6.9029 -55.6852 153° Southeast  Level FlightAware Approximate
04:30AM -7.0265 -55.6210 153° Southeast  Level FlightAware Approximate
04:31AM -7.1500 -55.5569 153° Southeast  Level FlightAware Approximate
04:32AM -7.2736 -55.4927 153° Southeast  Level FlightAware Approximate
04:33AM -7.3972 -55.4284 153° Southeast  Level FlightAware Approximate
04:34AM -7.5207 -55.3642 153° Southeast  Level FlightAware Approximate
04:35AM -7.6442 -55.2998 153° Southeast  Level FlightAware Approximate
04:36AM -7.7677 -55.2355 153° Southeast  Level FlightAware Approximate
04:37AM -7.8913 -55.1711 153° Southeast  Level FlightAware Approximate
04:38AM -8.0147 -55.1067 153° Southeast  Level FlightAware Approximate
04:39AM -8.1382 -55.0422 153° Southeast  Level FlightAware Approximate
04:40AM -8.2617 -54.9777 153° Southeast  Level FlightAware Approximate
04:41AM -8.3852 -54.9132 153° Southeast  Level FlightAware Approximate
04:42AM -8.5086 -54.8486 153° Southeast  Level FlightAware Approximate
04:43AM -8.6321 -54.7840 153° Southeast  Level FlightAware Approximate
04:44AM -8.7555 -54.7193 153° Southeast  Level FlightAware Approximate
04:45AM -8.8790 -54.6546 153° Southeast  Level FlightAware Approximate
04:46AM -9.0024 -54.5899 153° Southeast  Level FlightAware Approximate
04:47AM -9.1258 -54.5251 153° Southeast  Level FlightAware Approximate
04:48AM -9.2492 -54.4602 153° Southeast  Level FlightAware Approximate
04:49AM -9.3726 -54.3953 153° Southeast  Level FlightAware Approximate
04:50AM -9.4959 -54.3304 153° Southeast  Level FlightAware Approximate
04:51AM -9.6193 -54.2654 153° Southeast  Level FlightAware Approximate
04:52AM -9.7426 -54.2004 153° Southeast  Level FlightAware Approximate
04:53AM -9.8660 -54.1353 153° Southeast  Level FlightAware Approximate
04:54AM -9.9893 -54.0702 153° Southeast  Level FlightAware Approximate
04:55AM -10.1126 -54.0050 153° Southeast  Level FlightAware Approximate
04:56AM -10.2359 -53.9398 152° Southeast  Level FlightAware Approximate
04:57AM -10.3592 -53.8745 152° Southeast  Level FlightAware Approximate
04:58AM -10.4824 -53.8092 152° Southeast  Level FlightAware Approximate
04:59AM -10.6057 -53.7438 152° Southeast  Level FlightAware Approximate
05:00AM -10.7289 -53.6784 152° Southeast  Level FlightAware Approximate
05:01AM -10.8522 -53.6129 152° Southeast  Level FlightAware Approximate
05:02AM -10.9754 -53.5473 152° Southeast  Level FlightAware Approximate
05:03AM -11.0986 -53.4818 152° Southeast  Level FlightAware Approximate
05:04AM -11.2218 -53.4161 152° Southeast  Level FlightAware Approximate
05:05AM -11.3449 -53.3504 152° Southeast  Level FlightAware Approximate
05:06AM -11.4681 -53.2846 152° Southeast  Level FlightAware Approximate
05:07AM -11.5913 -53.2188 152° Southeast  Level FlightAware Approximate
05:08AM -11.7144 -53.1529 152° Southeast  Level FlightAware Approximate
05:09AM -11.8375 -53.0870 152° Southeast  Level FlightAware Approximate
05:10AM -11.9606 -53.0210 152° Southeast  Level FlightAware Approximate
05:11AM -12.0837 -52.9549 152° Southeast  Level FlightAware Approximate
05:12AM -12.2067 -52.8888 152° Southeast  Level FlightAware Approximate
05:13AM -12.3298 -52.8226 152° Southeast  Level FlightAware Approximate
05:14AM -12.4528 -52.7564 152° Southeast  Level FlightAware Approximate
05:15AM -12.5758 -52.6901 152° Southeast  Level FlightAware Approximate
05:16AM -12.6988 -52.6237 152° Southeast  Level FlightAware Approximate
05:17AM -12.8218 -52.5573 152° Southeast  Level FlightAware Approximate
05:18AM -12.9448 -52.4908 152° Southeast  Level FlightAware Approximate
05:19AM -13.0677 -52.4242 152° Southeast  Level FlightAware Approximate
05:20AM -13.1907 -52.3576 152° Southeast  Level FlightAware Approximate
05:21AM -13.3136 -52.2909 152° Southeast  Level FlightAware Approximate
05:22AM -13.4365 -52.2242 152° Southeast  Level FlightAware Approximate
05:23AM -13.5594 -52.1573 152° Southeast  Level FlightAware Approximate
05:24AM -13.6823 -52.0904 152° Southeast  Level FlightAware Approximate
05:25AM -13.8051 -52.0234 152° Southeast  Level FlightAware Approximate
05:26AM -13.9279 -51.9564 152° Southeast  Level FlightAware Approximate
05:27AM -14.0507 -51.8893 152° Southeast  Level FlightAware Approximate
05:28AM -14.1735 -51.8221 152° Southeast  Level FlightAware Approximate
05:29AM -14.2963 -51.7549 152° Southeast  Level FlightAware Approximate
05:30AM -14.4191 -51.6875 152° Southeast  Level FlightAware Approximate
05:31AM -14.5418 -51.6201 152° Southeast  Level FlightAware Approximate
05:32AM -14.6645 -51.5527 152° Southeast  Level FlightAware Approximate
05:33AM -14.7872 -51.4851 152° Southeast  Level FlightAware Approximate
05:34AM -14.9099 -51.4175 152° Southeast  Level FlightAware Approximate
05:35AM -15.0326 -51.3498 152° Southeast  Level FlightAware Approximate
05:36AM -15.1552 -51.2820 152° Southeast  Level FlightAware Approximate
05:37AM -15.2778 -51.2141 152° Southeast  Level FlightAware Approximate
05:38AM -15.4004 -51.1462 152° Southeast  Level FlightAware Approximate
05:39AM -15.5230 -51.0782 152° Southeast  Level FlightAware Approximate
05:40AM -15.6455 -51.0100 152° Southeast  Level FlightAware Approximate
05:41AM -15.7681 -50.9418 152° Southeast  Level FlightAware Approximate
05:42AM -15.8906 -50.8736 152° Southeast  Level FlightAware Approximate
05:43AM -16.0131 -50.8052 152° Southeast  Level FlightAware Approximate
05:44AM -16.1355 -50.7368 152° Southeast  Level FlightAware Approximate
05:45AM -16.2580 -50.6683 152° Southeast  Level FlightAware Approximate
05:46AM -16.3804 -50.5997 152° Southeast  Level FlightAware Approximate
05:47AM -16.5028 -50.5310 152° Southeast  Level FlightAware Approximate
05:48AM -16.6252 -50.4622 152° Southeast  Level FlightAware Approximate
05:49AM -16.7476 -50.3933 152° Southeast  Level FlightAware Approximate
05:50AM -16.8699 -50.3244 152° Southeast  Level FlightAware Approximate
05:51AM -16.9922 -50.2553 152° Southeast  Level FlightAware Approximate
05:52AM -17.1145 -50.1862 152° Southeast  Level FlightAware Approximate
05:53AM -17.2368 -50.1169 152° Southeast  Level FlightAware Approximate
05:54AM -17.3590 -50.0476 152° Southeast  Level FlightAware Approximate
05:55AM -17.4812 -49.9782 152° Southeast  Level FlightAware Approximate
05:56AM -17.6034 -49.9087 152° Southeast  Level FlightAware Approximate
05:57AM -17.7256 -49.8391 152° Southeast  Level FlightAware Approximate
05:58AM -17.8477 -49.7694 151° Southeast  Level FlightAware Approximate
05:59AM -17.9699 -49.6996 151° Southeast  Level FlightAware Approximate
06:00AM -18.0920 -49.6297 151° Southeast  Level FlightAware Approximate
06:01AM -18.2140 -49.5598 151° Southeast  Level FlightAware Approximate
06:02AM -18.3361 -49.4897 151° Southeast  Level FlightAware Approximate
06:03AM -18.4581 -49.4195 151° Southeast  Level FlightAware Approximate
06:04AM -18.5801 -49.3492 151° Southeast  Level FlightAware Approximate
06:05AM -18.7021 -49.2788 151° Southeast  Level FlightAware Approximate
06:06AM -18.8240 -49.2084 151° Southeast  Level FlightAware Approximate
06:07AM -18.9459 -49.1378 151° Southeast  Level FlightAware Approximate
06:08AM -19.0678 -49.0671 151° Southeast  Level FlightAware Approximate
06:09AM -19.1897 -48.9963 151° Southeast  Level FlightAware Approximate
06:10AM -19.3115 -48.9254 151° Southeast  Level FlightAware Approximate
06:11AM -19.4333 -48.8544 151° Southeast  Level FlightAware Approximate
06:12AM -19.5551 -48.7833 151° Southeast  Level FlightAware Approximate
06:13AM -19.6768 -48.7121 151° Southeast  Level FlightAware Approximate
06:14AM -19.7985 -48.6408 151° Southeast  Level FlightAware Approximate
06:15AM -19.9202 -48.5693 151° Southeast  Level FlightAware Approximate
06:16AM -20.0419 -48.4978 151° Southeast  Level FlightAware Approximate
06:17AM -20.1635 -48.4261 151° Southeast  Level FlightAware Approximate
06:18AM -20.2852 -48.3544 151° Southeast  Level FlightAware Approximate
06:19AM -20.4067 -48.2825 151° Southeast  Level FlightAware Approximate
06:20AM -20.5283 -48.2105 151° Southeast  Level FlightAware Approximate
06:21AM -20.6498 -48.1384 151° Southeast  Level FlightAware Approximate
06:22AM -20.7713 -48.0662 151° Southeast  Level FlightAware Approximate
06:23AM -20.8928 -47.9938 151° Southeast  Level FlightAware Approximate
06:24AM -21.0142 -47.9214 151° Southeast  Level FlightAware Approximate
06:25AM -21.1356 -47.8488 151° Southeast  Level FlightAware Approximate
06:26AM -21.2570 -47.7761 151° Southeast  Level FlightAware Approximate
06:27AM -21.3783 -47.7033 151° Southeast  Level FlightAware Approximate
06:28AM -21.4996 -47.6303 151° Southeast  Level FlightAware Approximate
06:29AM -21.6190 -47.5540 148° Southeast  Level FlightAware Approximate
06:30AM -21.7449 -47.4923 148° Southeast  Level FlightAware Approximate
06:31AM -21.8641 -47.4153 149° Southeast  Level FlightAware Approximate
06:32AM -21.9843 -47.3401 153° Southeast  Level FlightAware Approximate
06:33AM -22.1076 -47.2708 152° Southeast  Level FlightAware Approximate
06:34AM -22.2309 -47.2014 152° Southeast  Level FlightAware Approximate
06:35AM -22.3481 -47.1206 147° Southeast  Level FlightAware Approximate
06:36AM -22.4658 -47.0407 152° Southeast  Level FlightAware Approximate
06:37AM -22.5880 -46.9689 152° Southeast  Level FlightAware Approximate
06:38AM -22.7101 -46.8970 151° Southeast  Level FlightAware Approximate
06:39AM -22.8309 -46.8224 150° Southeast  Level FlightAware Approximate
06:40AM -22.9527 -46.7498 152° Southeast  Level FlightAware Approximate
06:40AM -21.4850 -48.0380 152° Southeast 498 573 37,000  Level FlightAware
06:40AM -21.5610 -47.9730 142° Southeast 497 572 37,000  Level FlightAware
06:41AM -21.6370 -47.9080 142° Southeast 495 570 37,000 -240 Level FlightAware
06:42AM -21.7090 -47.8460 141° Southeast 499 574 36,700 -1,320 Descending FlightAware
06:42AM -21.7830 -47.7830 142° Southeast 506 582 35,300 -2,340 Descending FlightAware
06:43AM -21.8620 -47.7150 141° Southeast 502 578 33,600 -2,400 Descending FlightAware
06:44AM -21.9560 -47.6340 141° Southeast 486 559 32,100 -2,100 Descending FlightAware
06:44AM -22.0270 -47.5740 142° Southeast 471 542 30,800 -1,620 Descending FlightAware
06:45AM -22.0830 -47.5260 142° Southeast 463 533 29,700 -1,620 Descending FlightAware
06:46AM -22.1520 -47.4660 141° Southeast 452 520 28,400 -1,920 Descending FlightAware
06:47AM -22.2230 -47.4040 141° Southeast 442 509 27,000 -1,860 Descending FlightAware
06:47AM -22.2840 -47.3510 141° Southeast 433 498 25,800 -1,800 Descending FlightAware
06:48AM -22.3460 -47.2980 142° Southeast 425 489 24,600 -1,800 Descending FlightAware
06:49AM -22.4160 -47.2380 142° Southeast 414 476 23,300 -1,740 Descending FlightAware
06:49AM -22.4720 -47.1890 141° Southeast 405 466 22,200 -1,680 Descending FlightAware
06:50AM -22.5270 -47.1410 141° Southeast 399 459 21,100 -1,740 Descending FlightAware
06:51AM -22.5930 -47.0920 146° Southeast 391 450 19,800 -1,740 Descending FlightAware
06:51AM -22.6610 -47.0620 158° South 384 442 18,700 -1,800 Descending FlightAware
06:52AM -22.7400 -47.0290 159° South 379 436 17,300 -1,800 Descending FlightAware
06:53AM -22.8090 -47.0000 159° South 374 430 16,200 -1,740 Descending FlightAware
06:53AM -22.8760 -46.9720 159° South 370 426 15,000 -1,800 Descending FlightAware
06:54AM -22.9490 -46.9420 159° South 370 426 13,700 -1,560 Descending FlightAware
06:55AM -23.0100 -46.9160 159° South 332 382 12,800 -1,200 Descending FlightAware
06:56AM -23.0580 -46.8960 159° South 303 349 12,100 -900 Descending FlightAware
06:56AM -23.1120 -46.8730 159° South 278 320 11,600 -1,080 Descending FlightAware
06:57AM -23.1650 -46.8500 158° South 273 314 10,600 -1,380 Descending FlightAware
06:57AM -23.2000 -46.8360 160° South 264 304 9,900 -1,980 Descending FlightAware
06:58AM -23.2280 -46.8240 159° South 260 299 8,800 -2,520 Descending FlightAware
06:58AM -23.2610 -46.8100 159° South 258 297 7,600 -1,680 Descending FlightAware
06:59AM -23.2860 -46.8000 160° South 255 293 7,300 -900 Descending FlightAware
06:59AM -23.3400 -46.7790 160° South 225 259 6,700 -600 Descending FlightAware
07:00AM -23.3630 -46.7710 162° South 225 259 6,700 -900 Level FlightAware
07:00AM -23.3870 -46.7620 161° South 204 235 5,900 -1,440 Descending FlightAware
07:01AM -23.4080 -46.7540 161° South 199 229 5,500 -600 Descending FlightAware
07:01AM -23.4350 -46.7370 150° Southeast 196 226 5,400 -120 Descending FlightAware
07:01AM -23.4460 -46.7240 133° Southeast 196 226 5,400  Level FlightAware
07:02AM -23.4630 -46.7030 131° Southeast 196 226 5,400  Level FlightAware
07:02AM -23.4720 -46.6900 127° Southeast 194 223 5,400  Level FlightAware
07:03AM -23.4840 -46.6590 113° Southeast 194 223 5,400 -300 Level FlightAware
07:03AM -23.4810 -46.6500 70° East 191 220 5,200 -960 Descending FlightAware
07:03AM -23.4780 -46.6310 80° East 169 194 5,000 -840 Descending FlightAware
07:04AM -23.4710 -46.6060 73° East 170 196 4,500 -960 Descending FlightAware
07:04AM -23.4630 -46.5760 74° East 168 193 3,900 -900 Descending FlightAware
07:05AM -23.4580 -46.5590 72° East 166 191 3,600 -840 Descending FlightAware
07:05AM -23.4510 -46.5340 73° East 164 189 3,200 -840 Descending FlightAware
07:06AM -23.4450 -46.5110 74° East 163 188 2,800 -840 Descending FlightAware